sensor_id;sensor_type;location;lat;lon;timestamp;P1;durP1;ratioP1;P2;durP2;ratioP2
79570;SDS011;69034;49.444;7.758;2023-09-30T00:03:14;3.03;;;0.93;;
79570;SDS011;69034;49.444;7.758;2023-09-30T00:11:18;1.80;;;0.85;;
79570;SDS011;69034;49.444;7.758;2023-09-30T00:15:19;4.00;;;1.10;;
79570;SDS011;69034;49.444;7.758;2023-09-30T00:19:19;2.63;;;0.90;;
79570;SDS011;69034;49.444;7.758;2023-09-30T00:23:22;4.30;;;1.58;;
79570;SDS011;69034;49.444;7.758;2023-09-30T00:27:23;2.97;;;0.90;;
79570;SDS011;69034;49.444;7.758;2023-09-30T00:31:24;2.05;;;0.98;;
79570;SDS011;69034;49.444;7.758;2023-09-30T00:35:25;2.08;;;0.77;;
79570;SDS011;69034;49.444;7.758;2023-09-30T00:39:25;4.25;;;0.90;;
79570;SDS011;69034;49.444;7.758;2023-09-30T00:43:29;3.72;;;0.70;;
79570;SDS011;69034;49.444;7.758;2023-09-30T00:47:31;3.10;;;1.10;;
79570;SDS011;69034;49.444;7.758;2023-09-30T00:51:33;3.58;;;1.00;;
79570;SDS011;69034;49.444;7.758;2023-09-30T00:55:34;2.47;;;1.00;;
79570;SDS011;69034;49.444;7.758;2023-09-30T00:59:35;2.72;;;0.90;;
79570;SDS011;69034;49.444;7.758;2023-09-30T01:03:37;2.35;;;1.00;;
79570;SDS011;69034;49.444;7.758;2023-09-30T01:07:38;3.63;;;1.00;;
79570;SDS011;69034;49.444;7.758;2023-09-30T01:11:39;2.58;;;0.93;;
79570;SDS011;69034;49.444;7.758;2023-09-30T01:15:44;3.40;;;0.90;;
79570;SDS011;69034;49.444;7.758;2023-09-30T01:19:45;4.97;;;1.42;;
79570;SDS011;69034;49.444;7.758;2023-09-30T01:23:46;2.10;;;0.90;;
79570;SDS011;69034;49.444;7.758;2023-09-30T01:27:49;3.00;;;1.00;;
79570;SDS011;69034;49.444;7.758;2023-09-30T01:31:51;1.92;;;0.73;;
79570;SDS011;69034;49.444;7.758;2023-09-30T01:35:52;2.17;;;0.90;;
79570;SDS011;69034;49.444;7.758;2023-09-30T01:39:53;3.00;;;1.27;;
79570;SDS011;69034;49.444;7.758;2023-09-30T01:43:55;3.17;;;1.30;;
79570;SDS011;69034;49.444;7.758;2023-09-30T01:47:56;2.60;;;1.00;;
79570;SDS011;69034;49.444;7.758;2023-09-30T01:51:56;5.55;;;1.60;;
79570;SDS011;69034;49.444;7.758;2023-09-30T01:55:58;4.72;;;1.23;;
79570;SDS011;69034;49.444;7.758;2023-09-30T01:59:59;3.08;;;0.95;;
79570;SDS011;69034;49.444;7.758;2023-09-30T02:03:59;6.13;;;1.52;;
79570;SDS011;69034;49.444;7.758;2023-09-30T02:08:00;2.78;;;0.90;;
79570;SDS011;69034;49.444;7.758;2023-09-30T02:12:05;2.47;;;1.08;;
79570;SDS011;69034;49.444;7.758;2023-09-30T02:16:11;2.78;;;1.02;;
79570;SDS011;69034;49.444;7.758;2023-09-30T02:20:13;2.90;;;1.27;;
79570;SDS011;69034;49.444;7.758;2023-09-30T02:24:19;4.10;;;1.58;;
79570;SDS011;69034;49.444;7.758;2023-09-30T02:28:20;3.60;;;1.17;;
79570;SDS011;69034;49.444;7.758;2023-09-30T02:32:20;3.13;;;0.90;;
79570;SDS011;69034;49.444;7.758;2023-09-30T02:36:21;2.53;;;1.00;;
79570;SDS011;69034;49.444;7.758;2023-09-30T02:40:22;4.68;;;1.17;;
79570;SDS011;69034;49.444;7.758;2023-09-30T02:44:24;2.45;;;0.88;;
79570;SDS011;69034;49.444;7.758;2023-09-30T02:48:25;3.67;;;1.13;;
79570;SDS011;69034;49.444;7.758;2023-09-30T02:52:26;3.85;;;1.33;;
79570;SDS011;69034;49.444;7.758;2023-09-30T02:56:28;2.90;;;0.98;;
79570;SDS011;69034;49.444;7.758;2023-09-30T03:00:30;2.25;;;0.73;;
79570;SDS011;69034;49.444;7.758;2023-09-30T03:04:32;4.20;;;1.05;;
79570;SDS011;69034;49.444;7.758;2023-09-30T03:08:33;3.70;;;1.60;;
79570;SDS011;69034;49.444;7.758;2023-09-30T03:12:35;2.72;;;1.23;;
79570;SDS011;69034;49.444;7.758;2023-09-30T03:16:36;4.25;;;1.75;;
79570;SDS011;69034;49.444;7.758;2023-09-30T03:20:39;4.38;;;1.65;;
79570;SDS011;69034;49.444;7.758;2023-09-30T03:24:40;5.57;;;1.50;;
79570;SDS011;69034;49.444;7.758;2023-09-30T03:28:41;4.53;;;1.10;;
79570;SDS011;69034;49.444;7.758;2023-09-30T03:32:42;3.50;;;1.20;;
79570;SDS011;69034;49.444;7.758;2023-09-30T03:36:44;2.10;;;0.95;;
79570;SDS011;69034;49.444;7.758;2023-09-30T03:40:44;3.40;;;1.17;;
79570;SDS011;69034;49.444;7.758;2023-09-30T03:44:47;3.05;;;1.20;;
79570;SDS011;69034;49.444;7.758;2023-09-30T03:48:48;2.50;;;0.88;;
79570;SDS011;69034;49.444;7.758;2023-09-30T03:52:49;2.83;;;1.13;;
79570;SDS011;69034;49.444;7.758;2023-09-30T03:56:51;2.55;;;1.10;;
79570;SDS011;69034;49.444;7.758;2023-09-30T04:00:53;4.30;;;1.35;;
79570;SDS011;69034;49.444;7.758;2023-09-30T04:04:54;2.47;;;1.10;;
79570;SDS011;69034;49.444;7.758;2023-09-30T04:08:57;2.30;;;0.88;;
79570;SDS011;69034;49.444;7.758;2023-09-30T04:12:59;2.53;;;1.08;;
79570;SDS011;69034;49.444;7.758;2023-09-30T04:16:59;3.38;;;1.30;;
79570;SDS011;69034;49.444;7.758;2023-09-30T04:21:01;3.05;;;1.40;;
79570;SDS011;69034;49.444;7.758;2023-09-30T04:25:02;3.47;;;1.20;;
79570;SDS011;69034;49.444;7.758;2023-09-30T04:33:10;3.47;;;1.20;;
79570;SDS011;69034;49.444;7.758;2023-09-30T04:37:13;2.00;;;0.80;;
79570;SDS011;69034;49.444;7.758;2023-09-30T04:41:14;4.68;;;1.30;;
79570;SDS011;69034;49.444;7.758;2023-09-30T04:45:15;3.53;;;1.60;;
79570;SDS011;69034;49.444;7.758;2023-09-30T04:49:16;3.35;;;1.20;;
79570;SDS011;69034;49.444;7.758;2023-09-30T04:53:18;3.67;;;1.63;;
79570;SDS011;69034;49.444;7.758;2023-09-30T04:57:19;3.90;;;1.30;;
79570;SDS011;69034;49.444;7.758;2023-09-30T05:01:20;3.70;;;1.20;;
79570;SDS011;69034;49.444;7.758;2023-09-30T05:05:20;2.40;;;1.05;;
79570;SDS011;69034;49.444;7.758;2023-09-30T05:09:22;2.58;;;0.93;;
79570;SDS011;69034;49.444;7.758;2023-09-30T05:13:23;4.47;;;1.50;;
79570;SDS011;69034;49.444;7.758;2023-09-30T05:17:25;2.33;;;1.10;;
79570;SDS011;69034;49.444;7.758;2023-09-30T05:21:26;3.40;;;1.13;;
79570;SDS011;69034;49.444;7.758;2023-09-30T05:25:27;4.20;;;1.58;;
79570;SDS011;69034;49.444;7.758;2023-09-30T05:29:28;2.70;;;1.27;;
79570;SDS011;69034;49.444;7.758;2023-09-30T05:33:29;3.55;;;1.40;;
79570;SDS011;69034;49.444;7.758;2023-09-30T05:37:32;3.55;;;1.20;;
79570;SDS011;69034;49.444;7.758;2023-09-30T05:41:32;3.17;;;1.10;;
79570;SDS011;69034;49.444;7.758;2023-09-30T05:45:34;4.38;;;1.48;;
79570;SDS011;69034;49.444;7.758;2023-09-30T05:49:34;3.28;;;1.27;;
79570;SDS011;69034;49.444;7.758;2023-09-30T05:53:36;4.38;;;1.55;;
79570;SDS011;69034;49.444;7.758;2023-09-30T05:57:38;3.92;;;1.30;;
79570;SDS011;69034;49.444;7.758;2023-09-30T06:01:39;4.47;;;1.80;;
79570;SDS011;69034;49.444;7.758;2023-09-30T06:05:40;5.78;;;2.28;;
79570;SDS011;69034;49.444;7.758;2023-09-30T06:09:41;4.50;;;1.13;;
79570;SDS011;69034;49.444;7.758;2023-09-30T06:13:41;5.70;;;1.95;;
79570;SDS011;69034;49.444;7.758;2023-09-30T06:17:43;6.70;;;2.20;;
79570;SDS011;69034;49.444;7.758;2023-09-30T06:21:44;3.03;;;1.20;;
79570;SDS011;69034;49.444;7.758;2023-09-30T06:25:45;4.72;;;1.70;;
79570;SDS011;69034;49.444;7.758;2023-09-30T06:29:46;3.35;;;1.00;;
79570;SDS011;69034;49.444;7.758;2023-09-30T06:33:48;8.40;;;2.03;;
79570;SDS011;69034;49.444;7.758;2023-09-30T06:37:48;3.80;;;1.50;;
79570;SDS011;69034;49.444;7.758;2023-09-30T06:41:49;5.25;;;2.08;;
79570;SDS011;69034;49.444;7.758;2023-09-30T06:45:50;3.67;;;1.73;;
79570;SDS011;69034;49.444;7.758;2023-09-30T06:49:52;3.40;;;1.40;;
79570;SDS011;69034;49.444;7.758;2023-09-30T06:53:53;3.15;;;1.50;;
79570;SDS011;69034;49.444;7.758;2023-09-30T06:57:55;3.88;;;1.27;;
79570;SDS011;69034;49.444;7.758;2023-09-30T07:01:55;5.70;;;1.20;;
79570;SDS011;69034;49.444;7.758;2023-09-30T07:05:57;5.40;;;2.20;;
79570;SDS011;69034;49.444;7.758;2023-09-30T07:10:02;3.00;;;1.10;;
79570;SDS011;69034;49.444;7.758;2023-09-30T07:14:04;3.55;;;1.30;;
79570;SDS011;69034;49.444;7.758;2023-09-30T07:18:05;3.70;;;1.45;;
79570;SDS011;69034;49.444;7.758;2023-09-30T07:22:06;3.80;;;1.35;;
79570;SDS011;69034;49.444;7.758;2023-09-30T07:26:08;4.60;;;1.50;;
79570;SDS011;69034;49.444;7.758;2023-09-30T07:30:09;3.05;;;1.20;;
79570;SDS011;69034;49.444;7.758;2023-09-30T07:34:12;5.60;;;1.70;;
79570;SDS011;69034;49.444;7.758;2023-09-30T07:38:13;4.40;;;1.52;;
79570;SDS011;69034;49.444;7.758;2023-09-30T07:42:19;4.32;;;1.30;;
79570;SDS011;69034;49.444;7.758;2023-09-30T07:46:22;6.03;;;2.42;;
79570;SDS011;69034;49.444;7.758;2023-09-30T07:50:24;3.88;;;1.52;;
79570;SDS011;69034;49.444;7.758;2023-09-30T07:54:25;6.75;;;2.03;;
79570;SDS011;69034;49.444;7.758;2023-09-30T07:58:26;6.38;;;2.55;;
79570;SDS011;69034;49.444;7.758;2023-09-30T08:02:31;5.70;;;2.47;;
79570;SDS011;69034;49.444;7.758;2023-09-30T08:06:33;8.52;;;2.22;;
79570;SDS011;69034;49.444;7.758;2023-09-30T08:10:35;7.10;;;2.30;;
79570;SDS011;69034;49.444;7.758;2023-09-30T08:14:39;5.50;;;2.28;;
79570;SDS011;69034;49.444;7.758;2023-09-30T08:18:40;5.38;;;1.80;;
79570;SDS011;69034;49.444;7.758;2023-09-30T08:22:40;3.58;;;1.67;;
79570;SDS011;69034;49.444;7.758;2023-09-30T08:26:41;8.23;;;2.08;;
79570;SDS011;69034;49.444;7.758;2023-09-30T08:30:43;6.03;;;2.33;;
79570;SDS011;69034;49.444;7.758;2023-09-30T08:34:45;3.63;;;1.60;;
79570;SDS011;69034;49.444;7.758;2023-09-30T08:38:45;7.28;;;1.92;;
79570;SDS011;69034;49.444;7.758;2023-09-30T08:42:48;5.88;;;1.75;;
79570;SDS011;69034;49.444;7.758;2023-09-30T08:46:52;5.30;;;2.13;;
79570;SDS011;69034;49.444;7.758;2023-09-30T08:50:54;7.72;;;2.38;;
79570;SDS011;69034;49.444;7.758;2023-09-30T08:54:57;8.13;;;1.92;;
79570;SDS011;69034;49.444;7.758;2023-09-30T08:58:58;8.15;;;3.53;;
79570;SDS011;69034;49.444;7.758;2023-09-30T09:03:00;5.65;;;1.90;;
79570;SDS011;69034;49.444;7.758;2023-09-30T09:07:01;5.03;;;1.92;;
79570;SDS011;69034;49.444;7.758;2023-09-30T09:11:02;6.93;;;2.25;;
79570;SDS011;69034;49.444;7.758;2023-09-30T09:15:06;4.50;;;1.73;;
79570;SDS011;69034;49.444;7.758;2023-09-30T09:19:17;5.30;;;2.15;;
79570;SDS011;69034;49.444;7.758;2023-09-30T09:23:18;4.00;;;1.63;;
79570;SDS011;69034;49.444;7.758;2023-09-30T09:27:19;5.93;;;2.53;;
79570;SDS011;69034;49.444;7.758;2023-09-30T09:31:23;4.15;;;1.50;;
79570;SDS011;69034;49.444;7.758;2023-09-30T09:35:26;4.50;;;1.50;;
79570;SDS011;69034;49.444;7.758;2023-09-30T09:39:32;6.32;;;1.90;;
79570;SDS011;69034;49.444;7.758;2023-09-30T09:43:33;5.20;;;1.73;;
79570;SDS011;69034;49.444;7.758;2023-09-30T09:47:36;5.55;;;1.90;;
79570;SDS011;69034;49.444;7.758;2023-09-30T09:51:36;5.63;;;1.88;;
79570;SDS011;69034;49.444;7.758;2023-09-30T09:55:39;5.10;;;1.73;;
79570;SDS011;69034;49.444;7.758;2023-09-30T09:59:42;6.25;;;2.00;;
79570;SDS011;69034;49.444;7.758;2023-09-30T10:03:47;4.70;;;1.73;;
79570;SDS011;69034;49.444;7.758;2023-09-30T10:08:05;5.18;;;1.95;;
79570;SDS011;69034;49.444;7.758;2023-09-30T10:12:09;5.28;;;2.00;;
79570;SDS011;69034;49.444;7.758;2023-09-30T10:16:26;4.70;;;1.85;;
79570;SDS011;69034;49.444;7.758;2023-09-30T10:20:40;6.57;;;2.05;;
79570;SDS011;69034;49.444;7.758;2023-09-30T10:24:45;6.05;;;2.20;;
79570;SDS011;69034;49.444;7.758;2023-09-30T10:28:47;3.90;;;1.63;;
79570;SDS011;69034;49.444;7.758;2023-09-30T10:36:52;6.90;;;1.95;;
79570;SDS011;69034;49.444;7.758;2023-09-30T10:40:56;6.05;;;2.30;;
79570;SDS011;69034;49.444;7.758;2023-09-30T10:44:57;4.95;;;2.17;;
79570;SDS011;69034;49.444;7.758;2023-09-30T10:49:10;4.60;;;1.95;;
79570;SDS011;69034;49.444;7.758;2023-09-30T10:53:42;6.00;;;2.10;;
79570;SDS011;69034;49.444;7.758;2023-09-30T10:57:45;5.53;;;1.60;;
79570;SDS011;69034;49.444;7.758;2023-09-30T11:01:52;5.75;;;2.30;;
79570;SDS011;69034;49.444;7.758;2023-09-30T11:05:53;7.35;;;2.70;;
79570;SDS011;69034;49.444;7.758;2023-09-30T11:09:54;5.68;;;2.10;;
79570;SDS011;69034;49.444;7.758;2023-09-30T11:13:55;6.88;;;2.53;;
79570;SDS011;69034;49.444;7.758;2023-09-30T11:18:05;6.10;;;2.75;;
79570;SDS011;69034;49.444;7.758;2023-09-30T11:22:13;7.45;;;2.90;;
79570;SDS011;69034;49.444;7.758;2023-09-30T11:26:15;6.68;;;2.55;;
79570;SDS011;69034;49.444;7.758;2023-09-30T11:30:15;12.70;;;3.17;;
79570;SDS011;69034;49.444;7.758;2023-09-30T11:34:17;8.10;;;2.67;;
79570;SDS011;69034;49.444;7.758;2023-09-30T11:38:19;6.97;;;2.70;;
79570;SDS011;69034;49.444;7.758;2023-09-30T11:42:20;6.50;;;2.85;;
79570;SDS011;69034;49.444;7.758;2023-09-30T11:46:20;6.50;;;3.00;;
79570;SDS011;69034;49.444;7.758;2023-09-30T11:50:21;8.98;;;3.30;;
79570;SDS011;69034;49.444;7.758;2023-09-30T11:54:37;10.90;;;4.00;;
79570;SDS011;69034;49.444;7.758;2023-09-30T11:58:45;9.98;;;4.13;;
79570;SDS011;69034;49.444;7.758;2023-09-30T12:02:51;9.32;;;4.13;;
79570;SDS011;69034;49.444;7.758;2023-09-30T12:06:54;7.50;;;3.58;;
79570;SDS011;69034;49.444;7.758;2023-09-30T12:10:54;9.30;;;3.83;;
79570;SDS011;69034;49.444;7.758;2023-09-30T12:14:55;10.13;;;3.28;;
79570;SDS011;69034;49.444;7.758;2023-09-30T12:18:56;8.05;;;3.55;;
79570;SDS011;69034;49.444;7.758;2023-09-30T12:22:57;8.40;;;3.90;;
79570;SDS011;69034;49.444;7.758;2023-09-30T12:26:57;12.05;;;4.13;;
79570;SDS011;69034;49.444;7.758;2023-09-30T12:30:59;9.55;;;4.47;;
79570;SDS011;69034;49.444;7.758;2023-09-30T12:35:03;9.07;;;3.92;;
79570;SDS011;69034;49.444;7.758;2023-09-30T12:39:04;8.23;;;4.05;;
79570;SDS011;69034;49.444;7.758;2023-09-30T12:43:10;10.55;;;4.47;;
79570;SDS011;69034;49.444;7.758;2023-09-30T12:47:11;8.55;;;4.15;;
79570;SDS011;69034;49.444;7.758;2023-09-30T12:51:12;9.52;;;3.78;;
79570;SDS011;69034;49.444;7.758;2023-09-30T12:55:14;9.75;;;3.85;;
79570;SDS011;69034;49.444;7.758;2023-09-30T12:59:14;10.02;;;3.97;;
79570;SDS011;69034;49.444;7.758;2023-09-30T13:03:15;7.78;;;3.80;;
79570;SDS011;69034;49.444;7.758;2023-09-30T13:07:16;9.75;;;3.97;;
79570;SDS011;69034;49.444;7.758;2023-09-30T13:11:18;8.73;;;4.20;;
79570;SDS011;69034;49.444;7.758;2023-09-30T13:15:19;9.48;;;3.40;;
79570;SDS011;69034;49.444;7.758;2023-09-30T13:19:21;8.73;;;3.78;;
79570;SDS011;69034;49.444;7.758;2023-09-30T13:23:22;8.55;;;3.60;;
79570;SDS011;69034;49.444;7.758;2023-09-30T13:27:23;9.35;;;3.80;;
79570;SDS011;69034;49.444;7.758;2023-09-30T13:31:23;6.70;;;2.97;;
79570;SDS011;69034;49.444;7.758;2023-09-30T13:35:24;8.02;;;3.58;;
79570;SDS011;69034;49.444;7.758;2023-09-30T13:39:25;9.05;;;3.90;;
79570;SDS011;69034;49.444;7.758;2023-09-30T13:43:25;7.65;;;3.42;;
79570;SDS011;69034;49.444;7.758;2023-09-30T13:47:26;7.65;;;3.85;;
79570;SDS011;69034;49.444;7.758;2023-09-30T13:51:27;9.40;;;3.72;;
79570;SDS011;69034;49.444;7.758;2023-09-30T13:55:28;9.02;;;3.92;;
79570;SDS011;69034;49.444;7.758;2023-09-30T13:59:29;8.63;;;3.58;;
79570;SDS011;69034;49.444;7.758;2023-09-30T14:03:33;7.75;;;3.35;;
79570;SDS011;69034;49.444;7.758;2023-09-30T14:07:34;7.72;;;3.15;;
79570;SDS011;69034;49.444;7.758;2023-09-30T14:11:35;9.77;;;3.78;;
79570;SDS011;69034;49.444;7.758;2023-09-30T14:15:36;8.15;;;3.78;;
79570;SDS011;69034;49.444;7.758;2023-09-30T14:19:37;10.25;;;3.65;;
79570;SDS011;69034;49.444;7.758;2023-09-30T14:23:39;8.90;;;4.10;;
79570;SDS011;69034;49.444;7.758;2023-09-30T14:27:40;8.20;;;4.05;;
79570;SDS011;69034;49.444;7.758;2023-09-30T14:31:40;7.80;;;3.40;;
79570;SDS011;69034;49.444;7.758;2023-09-30T14:35:42;8.60;;;3.97;;
79570;SDS011;69034;49.444;7.758;2023-09-30T14:39:46;7.85;;;3.95;;
79570;SDS011;69034;49.444;7.758;2023-09-30T14:43:47;10.27;;;4.60;;
79570;SDS011;69034;49.444;7.758;2023-09-30T14:47:48;9.13;;;3.60;;
79570;SDS011;69034;49.444;7.758;2023-09-30T14:51:49;8.75;;;3.55;;
79570;SDS011;69034;49.444;7.758;2023-09-30T14:55:51;10.32;;;4.28;;
79570;SDS011;69034;49.444;7.758;2023-09-30T14:59:52;8.73;;;3.80;;
79570;SDS011;69034;49.444;7.758;2023-09-30T15:03:52;7.65;;;3.70;;
79570;SDS011;69034;49.444;7.758;2023-09-30T15:07:53;8.90;;;3.88;;
79570;SDS011;69034;49.444;7.758;2023-09-30T15:11:54;8.13;;;3.42;;
79570;SDS011;69034;49.444;7.758;2023-09-30T15:15:55;11.77;;;3.72;;
79570;SDS011;69034;49.444;7.758;2023-09-30T15:19:57;8.60;;;3.42;;
79570;SDS011;69034;49.444;7.758;2023-09-30T15:23:59;8.05;;;3.70;;
79570;SDS011;69034;49.444;7.758;2023-09-30T15:28:01;8.40;;;3.20;;
79570;SDS011;69034;49.444;7.758;2023-09-30T15:32:03;8.45;;;3.47;;
79570;SDS011;69034;49.444;7.758;2023-09-30T15:36:11;9.45;;;3.97;;
79570;SDS011;69034;49.444;7.758;2023-09-30T15:40:13;7.93;;;3.42;;
79570;SDS011;69034;49.444;7.758;2023-09-30T15:44:17;7.07;;;3.17;;
79570;SDS011;69034;49.444;7.758;2023-09-30T15:48:18;10.32;;;3.65;;
79570;SDS011;69034;49.444;7.758;2023-09-30T15:52:18;8.80;;;3.80;;
79570;SDS011;69034;49.444;7.758;2023-09-30T15:56:19;9.60;;;3.75;;
79570;SDS011;69034;49.444;7.758;2023-09-30T16:00:20;8.77;;;3.38;;
79570;SDS011;69034;49.444;7.758;2023-09-30T16:04:20;8.15;;;3.53;;
79570;SDS011;69034;49.444;7.758;2023-09-30T16:08:21;10.10;;;4.18;;
79570;SDS011;69034;49.444;7.758;2023-09-30T16:12:22;11.05;;;4.15;;
79570;SDS011;69034;49.444;7.758;2023-09-30T16:16:22;10.50;;;3.60;;
79570;SDS011;69034;49.444;7.758;2023-09-30T16:20:23;7.85;;;3.65;;
79570;SDS011;69034;49.444;7.758;2023-09-30T16:24:25;10.65;;;3.70;;
79570;SDS011;69034;49.444;7.758;2023-09-30T16:28:25;7.40;;;3.05;;
79570;SDS011;69034;49.444;7.758;2023-09-30T16:32:26;13.38;;;4.22;;
79570;SDS011;69034;49.444;7.758;2023-09-30T16:36:27;9.35;;;3.90;;
79570;SDS011;69034;49.444;7.758;2023-09-30T16:40:28;9.70;;;3.40;;
79570;SDS011;69034;49.444;7.758;2023-09-30T16:44:29;9.40;;;3.75;;
79570;SDS011;69034;49.444;7.758;2023-09-30T16:48:30;8.35;;;3.58;;
79570;SDS011;69034;49.444;7.758;2023-09-30T16:52:30;7.85;;;3.17;;
79570;SDS011;69034;49.444;7.758;2023-09-30T16:56:31;8.52;;;3.17;;
79570;SDS011;69034;49.444;7.758;2023-09-30T17:00:32;9.98;;;3.47;;
79570;SDS011;69034;49.444;7.758;2023-09-30T17:04:32;10.43;;;4.13;;
79570;SDS011;69034;49.444;7.758;2023-09-30T17:08:33;17.77;;;4.10;;
79570;SDS011;69034;49.444;7.758;2023-09-30T17:12:34;7.50;;;2.83;;
79570;SDS011;69034;49.444;7.758;2023-09-30T17:16:35;7.18;;;3.13;;
79570;SDS011;69034;49.444;7.758;2023-09-30T17:20:40;8.45;;;3.70;;
79570;SDS011;69034;49.444;7.758;2023-09-30T17:24:41;6.60;;;2.97;;
79570;SDS011;69034;49.444;7.758;2023-09-30T17:28:43;9.27;;;3.35;;
79570;SDS011;69034;49.444;7.758;2023-09-30T17:32:43;11.18;;;3.97;;
79570;SDS011;69034;49.444;7.758;2023-09-30T17:36:44;10.32;;;4.25;;
79570;SDS011;69034;49.444;7.758;2023-09-30T17:40:44;16.08;;;4.72;;
79570;SDS011;69034;49.444;7.758;2023-09-30T17:44:45;7.03;;;3.03;;
79570;SDS011;69034;49.444;7.758;2023-09-30T17:48:46;12.40;;;4.95;;
79570;SDS011;69034;49.444;7.758;2023-09-30T17:52:48;9.50;;;3.90;;
79570;SDS011;69034;49.444;7.758;2023-09-30T17:56:49;11.32;;;4.90;;
79570;SDS011;69034;49.444;7.758;2023-09-30T18:00:50;13.10;;;4.80;;
79570;SDS011;69034;49.444;7.758;2023-09-30T18:04:51;11.13;;;4.70;;
79570;SDS011;69034;49.444;7.758;2023-09-30T18:08:52;10.35;;;4.07;;
79570;SDS011;69034;49.444;7.758;2023-09-30T18:12:52;46.38;;;19.67;;
79570;SDS011;69034;49.444;7.758;2023-09-30T18:16:53;41.85;;;18.40;;
79570;SDS011;69034;49.444;7.758;2023-09-30T18:20:54;39.13;;;16.58;;
79570;SDS011;69034;49.444;7.758;2023-09-30T18:24:55;34.45;;;15.27;;
79570;SDS011;69034;49.444;7.758;2023-09-30T18:28:55;29.77;;;13.70;;
79570;SDS011;69034;49.444;7.758;2023-09-30T18:32:56;23.48;;;11.77;;
79570;SDS011;69034;49.444;7.758;2023-09-30T18:36:58;10.52;;;3.85;;
79570;SDS011;69034;49.444;7.758;2023-09-30T18:40:59;8.68;;;4.18;;
79570;SDS011;69034;49.444;7.758;2023-09-30T18:45:00;12.40;;;3.95;;
79570;SDS011;69034;49.444;7.758;2023-09-30T18:49:01;9.13;;;3.63;;
79570;SDS011;69034;49.444;7.758;2023-09-30T18:53:02;11.25;;;3.75;;
79570;SDS011;69034;49.444;7.758;2023-09-30T18:57:03;7.22;;;3.58;;
79570;SDS011;69034;49.444;7.758;2023-09-30T19:01:04;11.02;;;3.78;;
79570;SDS011;69034;49.444;7.758;2023-09-30T19:05:04;9.15;;;3.70;;
79570;SDS011;69034;49.444;7.758;2023-09-30T19:09:06;10.63;;;3.42;;
79570;SDS011;69034;49.444;7.758;2023-09-30T19:13:07;9.30;;;3.78;;
79570;SDS011;69034;49.444;7.758;2023-09-30T19:17:09;11.57;;;3.45;;
79570;SDS011;69034;49.444;7.758;2023-09-30T19:21:13;10.48;;;3.67;;
79570;SDS011;69034;49.444;7.758;2023-09-30T19:25:14;7.70;;;3.35;;
79570;SDS011;69034;49.444;7.758;2023-09-30T19:29:16;8.82;;;3.72;;
79570;SDS011;69034;49.444;7.758;2023-09-30T19:33:18;9.98;;;3.38;;
79570;SDS011;69034;49.444;7.758;2023-09-30T19:37:18;11.85;;;3.28;;
79570;SDS011;69034;49.444;7.758;2023-09-30T19:41:19;8.65;;;3.22;;
79570;SDS011;69034;49.444;7.758;2023-09-30T19:45:22;7.85;;;3.75;;
79570;SDS011;69034;49.444;7.758;2023-09-30T19:49:24;9.25;;;3.33;;
79570;SDS011;69034;49.444;7.758;2023-09-30T19:53:26;7.40;;;3.20;;
79570;SDS011;69034;49.444;7.758;2023-09-30T19:57:26;9.95;;;3.65;;
79570;SDS011;69034;49.444;7.758;2023-09-30T20:01:31;11.30;;;3.63;;
79570;SDS011;69034;49.444;7.758;2023-09-30T20:05:32;8.35;;;3.03;;
79570;SDS011;69034;49.444;7.758;2023-09-30T20:09:32;7.80;;;3.20;;
79570;SDS011;69034;49.444;7.758;2023-09-30T20:13:35;8.30;;;2.97;;
79570;SDS011;69034;49.444;7.758;2023-09-30T20:17:36;9.07;;;3.60;;
79570;SDS011;69034;49.444;7.758;2023-09-30T20:21:37;8.30;;;3.35;;
79570;SDS011;69034;49.444;7.758;2023-09-30T20:25:38;7.85;;;2.88;;
79570;SDS011;69034;49.444;7.758;2023-09-30T20:29:38;8.05;;;2.90;;
79570;SDS011;69034;49.444;7.758;2023-09-30T20:33:39;11.50;;;3.33;;
79570;SDS011;69034;49.444;7.758;2023-09-30T20:37:40;9.13;;;2.38;;
79570;SDS011;69034;49.444;7.758;2023-09-30T20:41:41;7.45;;;2.75;;
79570;SDS011;69034;49.444;7.758;2023-09-30T20:45:42;8.45;;;3.13;;
79570;SDS011;69034;49.444;7.758;2023-09-30T20:49:43;7.28;;;2.40;;
79570;SDS011;69034;49.444;7.758;2023-09-30T20:53:43;9.55;;;2.65;;
79570;SDS011;69034;49.444;7.758;2023-09-30T20:57:47;9.15;;;2.88;;
79570;SDS011;69034;49.444;7.758;2023-09-30T21:01:48;11.98;;;3.15;;
79570;SDS011;69034;49.444;7.758;2023-09-30T21:05:50;6.95;;;2.58;;
79570;SDS011;69034;49.444;7.758;2023-09-30T21:09:53;6.05;;;2.35;;
79570;SDS011;69034;49.444;7.758;2023-09-30T21:13:54;7.68;;;2.92;;
79570;SDS011;69034;49.444;7.758;2023-09-30T21:17:54;5.15;;;2.22;;
79570;SDS011;69034;49.444;7.758;2023-09-30T21:21:56;7.50;;;2.45;;
79570;SDS011;69034;49.444;7.758;2023-09-30T21:25:57;6.95;;;2.63;;
79570;SDS011;69034;49.444;7.758;2023-09-30T21:29:59;7.53;;;2.78;;
79570;SDS011;69034;49.444;7.758;2023-09-30T21:34:00;6.82;;;2.83;;
79570;SDS011;69034;49.444;7.758;2023-09-30T21:38:00;6.32;;;2.55;;
79570;SDS011;69034;49.444;7.758;2023-09-30T21:42:01;10.27;;;3.45;;
79570;SDS011;69034;49.444;7.758;2023-09-30T21:46:03;7.78;;;3.25;;
79570;SDS011;69034;49.444;7.758;2023-09-30T21:50:05;7.03;;;2.65;;
79570;SDS011;69034;49.444;7.758;2023-09-30T21:54:06;8.63;;;3.25;;
79570;SDS011;69034;49.444;7.758;2023-09-30T21:58:07;9.02;;;2.80;;
79570;SDS011;69034;49.444;7.758;2023-09-30T22:02:08;6.32;;;2.20;;
79570;SDS011;69034;49.444;7.758;2023-09-30T22:06:09;9.00;;;2.88;;
79570;SDS011;69034;49.444;7.758;2023-09-30T22:10:10;5.63;;;2.78;;
79570;SDS011;69034;49.444;7.758;2023-09-30T22:14:13;10.98;;;3.20;;
79570;SDS011;69034;49.444;7.758;2023-09-30T22:18:14;7.07;;;2.33;;
79570;SDS011;69034;49.444;7.758;2023-09-30T22:22:16;8.45;;;2.63;;
79570;SDS011;69034;49.444;7.758;2023-09-30T22:26:16;6.82;;;2.78;;
79570;SDS011;69034;49.444;7.758;2023-09-30T22:30:17;7.30;;;2.63;;
79570;SDS011;69034;49.444;7.758;2023-09-30T22:34:18;6.20;;;2.20;;
79570;SDS011;69034;49.444;7.758;2023-09-30T22:38:19;6.32;;;2.83;;
79570;SDS011;69034;49.444;7.758;2023-09-30T22:42:20;9.38;;;2.95;;
79570;SDS011;69034;49.444;7.758;2023-09-30T22:46:23;7.18;;;3.00;;
79570;SDS011;69034;49.444;7.758;2023-09-30T22:50:24;10.93;;;2.97;;
79570;SDS011;69034;49.444;7.758;2023-09-30T22:54:24;6.13;;;2.10;;
79570;SDS011;69034;49.444;7.758;2023-09-30T22:58:25;7.65;;;2.58;;
79570;SDS011;69034;49.444;7.758;2023-09-30T23:02:29;5.45;;;2.40;;
79570;SDS011;69034;49.444;7.758;2023-09-30T23:06:30;6.35;;;2.53;;
79570;SDS011;69034;49.444;7.758;2023-09-30T23:10:33;6.97;;;2.70;;
79570;SDS011;69034;49.444;7.758;2023-09-30T23:14:34;6.55;;;2.47;;
79570;SDS011;69034;49.444;7.758;2023-09-30T23:18:35;7.47;;;2.67;;
79570;SDS011;69034;49.444;7.758;2023-09-30T23:22:36;8.85;;;2.60;;
79570;SDS011;69034;49.444;7.758;2023-09-30T23:26:39;8.57;;;2.53;;
79570;SDS011;69034;49.444;7.758;2023-09-30T23:30:40;5.82;;;2.22;;
79570;SDS011;69034;49.444;7.758;2023-09-30T23:34:42;5.07;;;1.75;;
79570;SDS011;69034;49.444;7.758;2023-09-30T23:38:43;4.90;;;1.67;;
79570;SDS011;69034;49.444;7.758;2023-09-30T23:42:47;8.07;;;2.17;;
79570;SDS011;69034;49.444;7.758;2023-09-30T23:46:48;9.50;;;3.60;;
79570;SDS011;69034;49.444;7.758;2023-09-30T23:50:52;6.15;;;2.40;;
79570;SDS011;69034;49.444;7.758;2023-09-30T23:54:55;8.18;;;2.35;;
79570;SDS011;69034;49.444;7.758;2023-09-30T23:58:59;7.05;;;2.58;;
